Time;durP1;ratioP1;P1;durP2;ratioP2;P2;SDS_P1;SDS_P2;PMS_P1;PMS_P2;Temp;Humidity;BMP_temperature;BMP_pressure;BME280_temperature;BME280_humidity;BME280_pressure;Samples;Min_cycle;Max_cycle;Signal;HPM_P1;HPM_P2
2021/08/18 00:01:23;;;;;;;3.42;1.55;;;15.10;99.90;;;;;;4888283;29;20028;-94
2021/08/18 00:03:49;;;;;;;2.40;1.58;;;15.10;99.90;;;;;;4888343;29;20036;-95
2021/08/18 00:06:15;;;;;;;2.83;1.42;;;15.10;99.90;;;;;;4889866;29;20024;-96
2021/08/18 00:08:44;;;;;;;2.30;1.10;;;15.00;99.90;;;;;;4893641;29;20092;-94
2021/08/18 00:11:10;;;;;;;2.28;1.40;;;15.00;99.90;;;;;;4898203;29;20032;-95
2021/08/18 00:13:36;;;;;;;5.38;1.42;;;15.00;99.90;;;;;;4895299;29;20080;-94
2021/08/18 00:16:02;;;;;;;2.50;1.20;;;15.00;99.90;;;;;;4909686;29;20031;-94
2021/08/18 00:18:28;;;;;;;4.68;1.50;;;15.00;99.90;;;;;;4889774;29;20126;-94
2021/08/18 00:20:54;;;;;;;3.97;1.50;;;15.00;99.90;;;;;;4888102;29;20096;-93
2021/08/18 00:23:19;;;;;;;3.55;1.55;;;15.00;99.90;;;;;;4888815;29;20249;-94
2021/08/18 00:25:45;;;;;;;2.55;1.38;;;15.00;99.90;;;;;;4888247;29;20029;-95
2021/08/18 00:28:11;;;;;;;3.05;1.58;;;15.00;99.90;;;;;;4888243;29;20031;-94
2021/08/18 00:30:37;;;;;;;2.25;1.48;;;15.00;99.90;;;;;;4888308;29;20096;-95
2021/08/18 00:33:03;;;;;;;4.47;1.65;;;15.00;99.90;;;;;;4888327;29;20032;-94
2021/08/18 00:35:28;;;;;;;6.75;1.90;;;15.00;99.90;;;;;;4896421;29;20417;-94
2021/08/18 00:37:54;;;;;;;2.58;1.40;;;15.00;99.90;;;;;;4903691;29;20115;-96
2021/08/18 00:40:21;;;;;;;3.25;1.33;;;14.90;99.90;;;;;;4918471;29;20044;-95
2021/08/18 00:42:47;;;;;;;4.07;1.40;;;14.90;99.90;;;;;;4902736;29;20025;-94
2021/08/18 00:45:14;;;;;;;3.05;1.48;;;14.90;99.90;;;;;;4902590;29;20032;-96
2021/08/18 00:47:49;;;;;;;1.83;1.05;;;14.90;99.90;;;;;;4902462;29;20052;-94
2021/08/18 00:50:21;;;;;;;4.40;1.50;;;14.90;99.90;;;;;;4902113;29;20100;-95
2021/08/18 00:52:48;;;;;;;3.22;1.30;;;14.80;99.90;;;;;;4902033;29;20036;-93
2021/08/18 00:55:17;;;;;;;2.10;1.40;;;14.80;99.90;;;;;;4901848;29;20410;-95
2021/08/18 00:57:43;;;;;;;1.40;1.20;;;14.80;99.90;;;;;;4901616;29;20047;-95
2021/08/18 01:00:15;;;;;;;5.38;1.40;;;14.80;99.90;;;;;;4918197;29;20037;-95
2021/08/18 01:02:46;;;;;;;1.67;1.50;;;14.80;99.90;;;;;;4903214;29;20120;-95
2021/08/18 01:05:21;;;;;;;7.10;1.67;;;14.80;99.90;;;;;;4902960;29;20035;-96
2021/08/18 01:07:48;;;;;;;2.97;1.63;;;14.80;99.90;;;;;;4902912;29;20032;-95
2021/08/18 01:10:17;;;;;;;1.98;1.27;;;14.80;99.90;;;;;;4903117;29;20040;-93
2021/08/18 01:12:43;;;;;;;2.13;1.60;;;14.80;99.90;;;;;;4902103;29;20162;-94
2021/08/18 01:15:12;;;;;;;3.75;1.70;;;14.80;99.90;;;;;;4902102;29;20064;-95
2021/08/18 01:17:54;;;;;;;3.23;1.63;;;14.80;99.90;;;;;;4918029;29;20127;-94
2021/08/18 01:20:23;;;;;;;3.75;1.60;;;14.80;99.90;;;;;;4901227;29;20028;-94
2021/08/18 01:22:49;;;;;;;3.20;1.30;;;14.80;99.90;;;;;;4901302;29;20115;-96
2021/08/18 01:25:15;;;;;;;3.45;1.50;;;14.80;99.90;;;;;;4900649;29;20033;-94
2021/08/18 01:27:47;;;;;;;2.17;1.77;;;14.80;99.90;;;;;;4901674;29;20546;-95
2021/08/18 01:30:15;;;;;;;2.88;1.73;;;14.80;99.90;;;;;;4901607;29;20056;-94
2021/08/18 01:32:46;;;;;;;2.58;1.50;;;14.80;99.90;;;;;;4884894;29;20036;-96
2021/08/18 01:35:25;;;;;;;3.72;1.67;;;14.80;99.90;;;;;;4899532;29;20076;-95
2021/08/18 01:37:51;;;;;;;1.63;1.30;;;14.70;99.90;;;;;;4899683;29;20041;-95
2021/08/18 01:40:17;;;;;;;2.88;1.42;;;14.70;99.90;;;;;;4899513;29;20044;-94
2021/08/18 01:42:43;;;;;;;4.50;1.90;;;14.70;99.90;;;;;;4899998;29;20113;-95
2021/08/18 01:45:10;;;;;;;2.42;1.20;;;14.70;99.90;;;;;;4899613;29;20029;-95
2021/08/18 01:47:36;;;;;;;3.03;1.80;;;14.70;99.90;;;;;;4899717;29;20036;-95
2021/08/18 01:50:03;;;;;;;2.67;1.50;;;14.70;99.90;;;;;;4899659;29;20041;-95
2021/08/18 01:52:29;;;;;;;4.15;2.25;;;14.70;99.90;;;;;;4899714;29;20119;-94
2021/08/18 01:54:54;;;;;;;4.82;1.95;;;14.70;99.90;;;;;;4899425;29;20111;-94
2021/08/18 01:57:20;;;;;;;3.83;2.20;;;14.70;99.90;;;;;;4899463;29;20032;-95
2021/08/18 01:59:47;;;;;;;3.72;2.15;;;14.70;99.90;;;;;;4899623;29;20040;-94
2021/08/18 02:02:13;;;;;;;3.40;2.10;;;14.70;99.90;;;;;;4900620;29;20028;-94
2021/08/18 02:04:38;;;;;;;3.88;2.20;;;14.70;99.90;;;;;;4899507;29;20069;-95
2021/08/18 02:07:04;;;;;;;5.47;2.25;;;14.70;99.90;;;;;;4914965;29;20024;-94
2021/08/18 02:09:30;;;;;;;3.13;2.08;;;14.70;99.90;;;;;;4899088;29;20076;-94
2021/08/18 02:11:56;;;;;;;2.90;2.33;;;14.70;99.90;;;;;;4899049;29;20025;-94
2021/08/18 02:14:21;;;;;;;3.42;2.30;;;14.70;99.90;;;;;;4898947;29;20033;-95
2021/08/18 02:16:47;;;;;;;4.78;2.13;;;14.70;99.90;;;;;;4899292;29;20478;-96
2021/08/18 02:19:13;;;;;;;2.45;2.03;;;14.70;99.90;;;;;;4898808;29;20491;-94
2021/08/18 02:21:38;;;;;;;4.80;2.20;;;14.70;99.90;;;;;;4914359;29;20032;-93
2021/08/18 02:24:04;;;;;;;3.17;1.98;;;14.70;99.90;;;;;;4899013;29;20458;-94
2021/08/18 02:26:30;;;;;;;4.28;2.17;;;14.70;99.90;;;;;;4899257;29;20033;-95
2021/08/18 02:28:55;;;;;;;3.47;2.15;;;14.70;99.90;;;;;;4899181;29;20042;-95
2021/08/18 02:31:21;;;;;;;5.30;1.90;;;14.70;99.90;;;;;;4899023;29;20028;-94
2021/08/18 02:33:47;;;;;;;4.05;1.90;;;14.70;99.90;;;;;;4898844;29;20452;-94
2021/08/18 02:36:12;;;;;;;3.83;1.90;;;14.70;99.90;;;;;;4914412;29;20116;-96
2021/08/18 02:38:38;;;;;;;3.90;2.00;;;14.70;99.90;;;;;;4898356;29;20040;-94
2021/08/18 02:41:03;;;;;;;4.93;1.42;;;14.70;99.90;;;;;;4899241;29;20025;-95
2021/08/18 02:43:29;;;;;;;1.35;1.10;;;14.70;99.90;;;;;;4898439;29;20055;-94
2021/08/18 02:45:55;;;;;;;4.85;1.80;;;14.70;99.90;;;;;;4898630;29;20064;-94
2021/08/18 02:48:20;;;;;;;2.88;1.30;;;14.70;99.90;;;;;;4898476;29;20423;-95
2021/08/18 02:50:46;;;;;;;3.38;1.30;;;14.70;99.90;;;;;;4898427;29;20037;-94
2021/08/18 02:53:12;;;;;;;3.38;1.23;;;14.70;99.90;;;;;;4916469;29;20024;-95
2021/08/18 02:55:38;;;;;;;2.03;1.17;;;14.70;99.90;;;;;;4903131;29;20025;-95
2021/08/18 02:58:04;;;;;;;2.08;1.27;;;14.60;99.90;;;;;;4910800;29;20104;-95
2021/08/18 03:00:30;;;;;;;3.65;1.20;;;14.60;99.90;;;;;;4909017;29;20024;-94
2021/08/18 03:02:55;;;;;;;2.08;1.20;;;14.60;99.90;;;;;;4906550;29;20064;-95
2021/08/18 03:05:21;;;;;;;2.38;1.50;;;14.60;99.90;;;;;;4902642;29;20024;-95
2021/08/18 03:07:47;;;;;;;2.00;1.02;;;14.60;99.90;;;;;;4899455;29;20064;-95
2021/08/18 03:10:13;;;;;;;2.28;1.25;;;14.60;99.90;;;;;;4915017;29;20057;-95
2021/08/18 03:12:39;;;;;;;2.10;1.30;;;14.50;99.90;;;;;;4898846;29;20052;-93
2021/08/18 03:15:06;;;;;;;2.17;1.20;;;14.50;99.90;;;;;;4898760;29;20029;-94
2021/08/18 03:17:32;;;;;;;2.20;1.40;;;14.50;99.90;;;;;;4898604;29;20051;-94
2021/08/18 03:19:58;;;;;;;2.35;1.60;;;14.50;99.90;;;;;;4898248;29;20033;-96
2021/08/18 03:22:24;;;;;;;1.48;1.20;;;14.50;99.90;;;;;;4898069;29;20497;-94
2021/08/18 03:24:50;;;;;;;2.72;1.60;;;14.50;99.90;;;;;;4917849;29;20124;-95
2021/08/18 03:27:15;;;;;;;2.33;1.45;;;14.50;99.90;;;;;;4901801;29;20025;-94
2021/08/18 03:29:41;;;;;;;4.53;1.85;;;14.50;99.90;;;;;;4919754;29;20479;-95
2021/08/18 03:32:07;;;;;;;2.03;1.80;;;14.50;99.90;;;;;;4902499;29;20447;-95
2021/08/18 03:34:33;;;;;;;2.88;2.10;;;14.50;99.90;;;;;;4898992;29;20058;-94
2021/08/18 03:36:58;;;;;;;4.15;2.20;;;14.50;99.90;;;;;;4899135;29;20033;-93
2021/08/18 03:39:24;;;;;;;3.45;2.10;;;14.50;99.90;;;;;;4899037;29;20041;-93
2021/08/18 03:41:50;;;;;;;2.47;2.05;;;14.50;99.90;;;;;;4898535;29;20066;-94
2021/08/18 03:44:16;;;;;;;3.40;2.35;;;14.50;99.90;;;;;;4898529;29;20043;-94
2021/08/18 03:46:41;;;;;;;6.32;2.35;;;14.50;99.90;;;;;;4913786;29;20033;-95
2021/08/18 03:49:07;;;;;;;4.10;2.20;;;14.50;99.90;;;;;;4898488;29;20032;-94
2021/08/18 03:51:32;;;;;;;2.90;1.92;;;14.50;99.90;;;;;;4898998;29;20029;-93
2021/08/18 03:53:58;;;;;;;4.78;2.53;;;14.50;99.90;;;;;;4899374;29;20036;-94
2021/08/18 03:56:24;;;;;;;4.45;2.55;;;14.50;99.90;;;;;;4899283;29;20024;-94
2021/08/18 03:58:49;;;;;;;6.65;2.50;;;14.50;99.90;;;;;;4900900;29;20076;-93
2021/08/18 04:01:15;;;;;;;7.30;2.40;;;14.50;99.90;;;;;;4912415;29;20080;-94
2021/08/18 04:03:40;;;;;;;5.13;2.55;;;14.50;99.90;;;;;;4931507;29;20075;-93
2021/08/18 04:06:06;;;;;;;3.17;1.92;;;14.50;99.90;;;;;;4897646;29;20028;-93
2021/08/18 04:08:32;;;;;;;4.85;2.13;;;14.50;99.90;;;;;;4897760;29;20064;-93
2021/08/18 04:14:19;;;;;;;4.28;1.98;;;14.50;99.90;;;;;;4898657;29;20039;-96
2021/08/18 04:16:45;;;;;;;3.75;1.85;;;14.50;99.90;;;;;;4897498;29;20036;-95
2021/08/18 04:19:11;;;;;;;2.83;1.40;;;14.50;99.90;;;;;;4913523;29;20080;-94
2021/08/18 04:21:36;;;;;;;4.00;2.35;;;14.50;99.90;;;;;;4897317;29;20406;-94
2021/08/18 04:24:02;;;;;;;1.75;1.45;;;14.40;99.90;;;;;;4897442;29;20029;-95
2021/08/18 04:26:31;;;;;;;3.75;1.55;;;14.40;99.90;;;;;;4900928;29;20028;-95
2021/08/18 04:28:56;;;;;;;2.95;2.05;;;14.40;99.90;;;;;;4897751;29;20036;-95
2021/08/18 04:31:23;;;;;;;3.70;1.90;;;14.40;99.90;;;;;;4897448;29;20025;-95
2021/08/18 04:33:51;;;;;;;2.53;1.63;;;14.40;99.90;;;;;;4899012;29;20145;-94
2021/08/18 04:36:17;;;;;;;4.05;1.67;;;14.40;99.90;;;;;;4913270;29;20487;-94
2021/08/18 04:38:43;;;;;;;4.10;1.73;;;14.40;99.90;;;;;;4897480;29;20043;-95
2021/08/18 04:41:11;;;;;;;5.00;1.67;;;14.40;99.90;;;;;;4897332;29;20032;-96
2021/08/18 04:43:37;;;;;;;2.83;1.60;;;14.30;99.90;;;;;;4897765;29;20036;-94
2021/08/18 04:46:03;;;;;;;2.65;1.60;;;14.40;99.90;;;;;;4900778;29;20492;-95
2021/08/18 04:48:28;;;;;;;3.50;1.60;;;14.30;99.90;;;;;;4901115;29;20025;-95
2021/08/18 04:50:54;;;;;;;2.40;1.55;;;14.30;99.90;;;;;;4916453;29;20028;-94
2021/08/18 04:53:20;;;;;;;4.18;2.35;;;14.30;99.90;;;;;;4900517;29;20046;-94
2021/08/18 04:55:45;;;;;;;3.25;1.60;;;14.30;99.90;;;;;;4900946;29;20029;-95
2021/08/18 04:58:11;;;;;;;3.25;1.70;;;14.30;99.90;;;;;;4900861;29;20372;-94
2021/08/18 05:00:36;;;;;;;5.22;2.00;;;14.30;99.90;;;;;;4900608;29;20028;-94
2021/08/18 05:03:02;;;;;;;3.90;1.30;;;14.30;99.90;;;;;;4900697;29;20075;-94
2021/08/18 05:05:28;;;;;;;3.42;1.90;;;14.30;99.90;;;;;;4916244;29;20037;-94
2021/08/18 05:07:58;;;;;;;2.00;1.60;;;14.30;99.90;;;;;;4900565;29;20021;-94
2021/08/18 05:10:24;;;;;;;7.53;2.28;;;14.30;99.90;;;;;;4900648;29;20483;-94
2021/08/18 05:12:50;;;;;;;5.05;1.65;;;14.30;99.90;;;;;;4900366;29;20063;-94
2021/08/18 05:15:16;;;;;;;4.13;1.67;;;14.30;99.90;;;;;;4900767;29;20088;-93
2021/08/18 05:17:44;;;;;;;4.20;1.60;;;14.30;99.90;;;;;;4900073;29;20084;-95
2021/08/18 05:20:10;;;;;;;6.00;1.95;;;14.30;99.90;;;;;;4901220;29;20040;-93
2021/08/18 05:22:36;;;;;;;6.95;1.55;;;14.30;99.90;;;;;;4916900;29;20037;-94
2021/08/18 05:25:04;;;;;;;2.15;1.30;;;14.30;99.90;;;;;;4900911;29;20043;-93
2021/08/18 05:27:30;;;;;;;4.57;1.50;;;14.30;99.90;;;;;;4900706;29;20024;-92
2021/08/18 05:29:55;;;;;;;3.25;1.88;;;14.30;99.90;;;;;;4901319;29;20084;-93
2021/08/18 05:32:21;;;;;;;2.72;1.65;;;14.30;99.90;;;;;;4900821;29;20033;-92
2021/08/18 05:34:46;;;;;;;4.43;1.80;;;14.30;99.90;;;;;;4900990;29;20060;-93
2021/08/18 05:37:12;;;;;;;4.93;1.73;;;14.30;99.90;;;;;;4900779;29;20056;-93
2021/08/18 05:39:38;;;;;;;5.72;1.48;;;14.30;99.90;;;;;;4909156;29;20041;-93
2021/08/18 05:42:04;;;;;;;5.18;1.92;;;14.30;99.90;;;;;;4918661;29;20029;-94
2021/08/18 05:44:29;;;;;;;2.35;1.60;;;14.30;99.90;;;;;;4910868;29;20053;-93
2021/08/18 05:46:55;;;;;;;2.47;1.50;;;14.30;99.90;;;;;;4911676;29;20432;-93
2021/08/18 05:49:21;;;;;;;5.07;1.40;;;14.30;99.90;;;;;;4906709;29;20439;-94
2021/08/18 05:51:50;;;;;;;4.72;1.40;;;14.30;99.90;;;;;;4905287;29;20029;-94
2021/08/18 05:54:17;;;;;;;1.70;1.10;;;14.30;99.90;;;;;;4900523;29;20064;-93
2021/08/18 05:56:42;;;;;;;5.13;1.33;;;14.30;99.90;;;;;;4915070;29;20032;-93
2021/08/18 05:59:08;;;;;;;3.55;1.23;;;14.30;99.90;;;;;;4900020;29;20047;-92
2021/08/18 06:01:34;;;;;;;2.55;1.30;;;14.30;99.90;;;;;;4900111;29;20025;-94
2021/08/18 06:04:00;;;;;;;1.02;0.88;;;14.30;99.90;;;;;;4899656;29;20127;-93
2021/08/18 06:06:27;;;;;;;3.00;1.02;;;14.30;99.90;;;;;;4899836;29;20120;-95
2021/08/18 06:08:53;;;;;;;0.70;0.70;;;14.20;99.90;;;;;;4899831;29;20056;-93
2021/08/18 06:11:19;;;;;;;1.13;0.77;;;14.20;99.90;;;;;;4915514;29;20068;-92
2021/08/18 06:13:44;;;;;;;2.30;0.82;;;14.10;99.90;;;;;;4900269;29;20043;-92
2021/08/18 06:16:10;;;;;;;2.88;0.73;;;14.10;99.90;;;;;;4899028;29;20101;-93
2021/08/18 06:18:36;;;;;;;2.67;0.95;;;14.10;99.90;;;;;;4899237;29;20495;-92
2021/08/18 06:21:01;;;;;;;1.85;1.00;;;14.10;99.90;;;;;;4900112;29;20025;-93
2021/08/18 06:23:29;;;;;;;2.53;0.90;;;14.10;99.90;;;;;;4900569;29;20028;-93
2021/08/18 06:25:58;;;;;;;1.30;0.90;;;14.10;99.90;;;;;;4899776;29;20112;-94
2021/08/18 06:28:25;;;;;;;3.97;1.23;;;14.10;99.90;;;;;;4899703;29;20065;-91
2021/08/18 06:30:51;;;;;;;4.55;0.88;;;14.10;99.90;;;;;;4899764;29;20498;-93
2021/08/18 06:33:17;;;;;;;1.05;0.82;;;14.20;99.90;;;;;;4898518;29;20059;-93
2021/08/18 06:35:43;;;;;;;1.65;1.00;;;14.20;99.90;;;;;;4889303;29;20048;-94
2021/08/18 06:38:09;;;;;;;2.40;0.90;;;14.20;99.90;;;;;;4883483;29;20410;-96
2021/08/18 06:40:34;;;;;;;3.47;1.17;;;14.20;99.90;;;;;;4883739;29;20033;-94
2021/08/18 06:43:00;;;;;;;1.42;0.90;;;14.20;99.90;;;;;;4884133;29;20120;-95
2021/08/18 06:50:38;;;;;;;2.47;0.80;;;14.20;99.90;;;;;;4963632;23;20055;-94
2021/08/18 06:53:03;;;;;;;2.30;0.80;;;14.20;99.90;;;;;;4881790;29;20044;-92
2021/08/18 06:55:30;;;;;;;2.10;0.70;;;14.20;99.90;;;;;;4874391;29;20170;-93
2021/08/18 06:57:56;;;;;;;1.10;0.80;;;14.20;99.90;;;;;;4889305;29;20040;-94
2021/08/18 07:00:22;;;;;;;2.13;0.80;;;14.20;99.90;;;;;;4892877;29;20109;-92
2021/08/18 07:02:51;;;;;;;1.23;0.68;;;14.20;99.90;;;;;;4897029;29;20042;-94
2021/08/18 07:05:18;;;;;;;4.25;0.90;;;14.30;99.90;;;;;;4896736;29;20092;-93
2021/08/18 07:07:45;;;;;;;3.90;0.88;;;14.30;99.90;;;;;;4896589;29;20096;-93
2021/08/18 07:10:12;;;;;;;0.60;0.60;;;14.30;99.90;;;;;;4896433;29;20052;-93
2021/08/18 07:12:38;;;;;;;0.70;0.50;;;14.30;99.90;;;;;;4910903;29;20381;-94
2021/08/18 07:15:05;;;;;;;5.53;0.95;;;14.30;99.90;;;;;;4879850;29;20048;-92
2021/08/18 07:17:33;;;;;;;2.60;0.82;;;14.30;99.90;;;;;;4893947;29;20025;-94
2021/08/18 07:19:59;;;;;;;3.70;0.88;;;14.30;99.90;;;;;;4894247;29;20042;-96
2021/08/18 07:22:25;;;;;;;1.75;0.68;;;14.30;99.90;;;;;;4894626;29;20036;-94
2021/08/18 07:24:51;;;;;;;1.88;0.73;;;14.30;99.90;;;;;;4891611;29;20032;-94
2021/08/18 07:27:17;;;;;;;1.52;0.90;;;14.30;99.90;;;;;;4891088;29;20025;-92
2021/08/18 07:29:43;;;;;;;3.58;0.90;;;14.30;99.90;;;;;;4919249;29;20125;-93
2021/08/18 07:32:09;;;;;;;6.30;1.08;;;14.30;99.90;;;;;;4904941;29;20032;-93
2021/08/18 07:34:34;;;;;;;3.17;0.90;;;14.30;99.90;;;;;;4920097;29;20065;-92
2021/08/18 07:37:01;;;;;;;3.03;0.95;;;14.30;99.90;;;;;;4904014;29;20028;-93
2021/08/18 07:39:30;;;;;;;1.27;0.95;;;14.30;99.90;;;;;;4911755;29;20041;-93
2021/08/18 07:41:56;;;;;;;5.78;1.20;;;14.30;99.90;;;;;;4910143;29;20058;-94
2021/08/18 07:44:30;;;;;;;1.15;1.00;;;14.30;99.90;;;;;;4895624;29;20063;-94
2021/08/18 07:46:56;;;;;;;2.42;0.88;;;14.30;99.90;;;;;;4889608;29;20044;-94
2021/08/18 07:49:22;;;;;;;1.75;0.98;;;14.40;99.90;;;;;;4885253;29;20470;-94
2021/08/18 07:51:48;;;;;;;2.58;1.00;;;14.40;99.90;;;;;;4898571;29;20056;-94
2021/08/18 07:54:14;;;;;;;2.08;0.98;;;14.40;99.90;;;;;;4904583;29;20028;-95
2021/08/18 07:56:40;;;;;;;2.78;1.05;;;14.50;99.90;;;;;;4904086;29;20067;-94
2021/08/18 07:59:07;;;;;;;2.15;0.95;;;14.50;99.90;;;;;;4906530;29;20048;-92
2021/08/18 08:01:33;;;;;;;1.08;0.70;;;14.50;99.90;;;;;;4909726;29;20110;-92
2021/08/18 08:03:58;;;;;;;2.65;0.77;;;14.50;99.90;;;;;;4904715;29;20086;-93
2021/08/18 08:06:24;;;;;;;1.85;0.70;;;14.60;99.90;;;;;;4906995;29;20048;-93
2021/08/18 08:08:50;;;;;;;0.73;0.60;;;14.60;99.90;;;;;;4905145;29;20032;-94
2021/08/18 08:11:21;;;;;;;0.82;0.70;;;14.70;99.90;;;;;;4904195;29;20123;-94
2021/08/18 08:13:46;;;;;;;2.95;0.85;;;14.70;99.90;;;;;;4904968;29;20030;-93
2021/08/18 08:16:15;;;;;;;1.20;0.88;;;14.80;99.90;;;;;;4903840;29;20122;-94
2021/08/18 08:18:41;;;;;;;2.05;0.73;;;14.70;99.90;;;;;;4905716;29;20088;-93
2021/08/18 08:21:09;;;;;;;0.73;0.70;;;14.80;99.90;;;;;;4908221;29;20021;-95
2021/08/18 08:23:35;;;;;;;1.65;0.85;;;14.90;99.90;;;;;;4907663;29;20064;-93
2021/08/18 08:26:02;;;;;;;2.35;0.90;;;15.00;99.90;;;;;;4908003;29;20032;-93
2021/08/18 08:28:28;;;;;;;1.35;0.88;;;15.10;99.90;;;;;;4907676;29;20036;-94
2021/08/18 08:30:54;;;;;;;1.67;0.77;;;15.20;99.90;;;;;;4907047;29;20516;-95
2021/08/18 08:33:20;;;;;;;1.60;1.00;;;15.20;99.90;;;;;;4891232;29;20036;-93
2021/08/18 08:35:45;;;;;;;1.05;0.70;;;15.30;99.90;;;;;;4907499;29;20055;-93
2021/08/18 08:38:13;;;;;;;2.55;0.82;;;15.40;99.90;;;;;;4907443;29;20043;-93
2021/08/18 08:40:44;;;;;;;1.55;0.80;;;15.50;99.90;;;;;;4909062;29;20028;-95
2021/08/18 08:43:12;;;;;;;3.10;0.80;;;15.50;99.90;;;;;;4907368;29;20115;-94
2021/08/18 08:45:39;;;;;;;2.03;0.70;;;15.60;99.90;;;;;;4894358;29;20039;-94
2021/08/18 08:48:14;;;;;;;1.52;1.00;;;15.50;99.90;;;;;;4906766;29;20040;-95
2021/08/18 08:50:40;;;;;;;2.08;0.88;;;15.50;99.90;;;;;;4906050;29;20028;-94
2021/08/18 08:53:06;;;;;;;1.17;1.08;;;15.60;99.90;;;;;;4906647;29;20051;-93
2021/08/18 08:55:32;;;;;;;3.45;1.00;;;15.60;99.90;;;;;;4905811;29;20032;-94
2021/08/18 08:57:58;;;;;;;2.13;0.70;;;15.50;99.90;;;;;;4905403;29;20071;-94
2021/08/18 09:00:24;;;;;;;1.83;0.52;;;15.60;99.90;;;;;;4905848;29;20489;-93
2021/08/18 09:03:12;;;;;;;3.65;1.02;;;15.60;99.90;;;;;;4909451;29;20020;-95
2021/08/18 09:05:39;;;;;;;3.38;0.90;;;15.60;99.90;;;;;;4911442;29;20070;-92
2021/08/18 09:08:16;;;;;;;2.28;0.95;;;15.60;99.90;;;;;;4911736;29;20028;-94
2021/08/18 09:11:01;;;;;;;1.92;0.90;;;15.70;99.90;;;;;;4895804;29;20036;-92
2021/08/18 09:13:49;;;;;;;1.50;0.80;;;15.80;99.90;;;;;;4910231;29;20036;-91
2021/08/18 09:16:19;;;;;;;2.22;0.77;;;15.90;99.90;;;;;;4910273;29;20032;-93
2021/08/18 09:18:50;;;;;;;2.53;1.10;;;16.00;99.90;;;;;;4909383;29;20066;-94
2021/08/18 09:21:25;;;;;;;1.52;0.65;;;16.00;99.90;;;;;;4912409;29;20096;-92
2021/08/18 09:23:50;;;;;;;2.70;0.80;;;16.10;99.90;;;;;;4907629;29;20040;-92
2021/08/18 09:26:22;;;;;;;5.18;0.85;;;16.20;99.90;;;;;;4904934;29;20056;-92
2021/08/18 09:28:49;;;;;;;2.40;0.63;;;16.20;99.90;;;;;;4905111;29;20035;-92
2021/08/18 09:31:24;;;;;;;2.55;0.70;;;16.20;99.90;;;;;;4888668;29;20028;-93
2021/08/18 09:33:57;;;;;;;0.60;0.60;;;16.20;99.90;;;;;;4905425;29;20040;-94
2021/08/18 09:36:27;;;;;;;1.02;0.60;;;16.10;99.90;;;;;;4905280;29;20024;-93
2021/08/18 09:39:20;;;;;;;0.88;0.70;;;16.10;99.90;;;;;;4905978;29;20039;-93
2021/08/18 09:41:46;;;;;;;0.82;0.65;;;16.20;99.90;;;;;;4905424;29;20043;-91
2021/08/18 09:44:12;;;;;;;1.33;0.60;;;16.30;99.90;;;;;;4905318;29;20127;-91
2021/08/18 09:46:38;;;;;;;2.72;0.55;;;16.40;99.90;;;;;;4905140;29;20032;-93
2021/08/18 09:49:14;;;;;;;1.63;0.60;;;16.40;99.90;;;;;;4913383;29;20034;-91
2021/08/18 09:51:43;;;;;;;1.20;0.40;;;16.40;99.90;;;;;;4913675;29;20060;-92
2021/08/18 09:54:18;;;;;;;0.68;0.30;;;16.40;99.90;;;;;;4913853;29;20053;-93
2021/08/18 09:57:05;;;;;;;1.15;0.38;;;16.50;99.90;;;;;;4912615;29;20028;-93
2021/08/18 09:59:31;;;;;;;0.35;0.20;;;16.50;99.90;;;;;;4911097;29;20044;-93
2021/08/18 10:01:58;;;;;;;0.60;0.60;;;16.50;99.90;;;;;;4910519;29;20034;-93
2021/08/18 10:04:24;;;;;;;0.88;0.40;;;16.50;99.90;;;;;;4912752;29;20470;-93
2021/08/18 10:06:52;;;;;;;0.30;0.30;;;16.60;99.90;;;;;;4913119;29;20055;-93
2021/08/18 10:09:18;;;;;;;1.95;0.40;;;16.60;99.90;;;;;;4920119;29;20034;-93
2021/08/18 10:11:49;;;;;;;1.27;0.63;;;16.50;99.90;;;;;;4914661;29;20036;-92
2021/08/18 10:14:15;;;;;;;2.13;0.60;;;16.50;99.90;;;;;;4914481;29;20059;-93
2021/08/18 10:16:41;;;;;;;1.00;0.40;;;16.40;99.90;;;;;;4913505;29;20096;-93
2021/08/18 10:19:07;;;;;;;0.93;0.50;;;16.40;99.90;;;;;;4906685;29;20433;-92
2021/08/18 10:21:34;;;;;;;2.65;0.47;;;16.30;99.90;;;;;;4903567;29;20032;-94
2021/08/18 10:24:03;;;;;;;0.30;0.30;;;16.30;99.90;;;;;;4903866;29;20092;-94
2021/08/18 10:26:34;;;;;;;0.35;0.30;;;16.40;99.90;;;;;;4904464;29;20028;-93
2021/08/18 10:29:06;;;;;;;1.17;0.57;;;16.40;99.90;;;;;;4910559;29;20054;-93
2021/08/18 10:31:41;;;;;;;0.60;0.40;;;16.40;99.90;;;;;;4923670;29;20099;-92
2021/08/18 10:34:07;;;;;;;0.85;0.50;;;16.40;99.90;;;;;;4923030;29;20036;-95
2021/08/18 10:36:42;;;;;;;0.95;0.55;;;16.40;99.90;;;;;;4922013;29;20159;-94
2021/08/18 10:39:26;;;;;;;1.77;0.52;;;16.40;99.90;;;;;;4922606;29;20225;-95
2021/08/18 10:42:05;;;;;;;1.27;0.50;;;16.40;99.90;;;;;;4920268;29;20052;-94
2021/08/18 10:44:46;;;;;;;2.63;0.63;;;16.50;99.90;;;;;;4905987;29;20115;-94
2021/08/18 10:47:28;;;;;;;2.35;0.70;;;16.60;99.90;;;;;;4903899;29;20064;-94
2021/08/18 10:50:00;;;;;;;0.75;0.60;;;16.60;99.90;;;;;;4907268;29;20080;-94
2021/08/18 10:52:29;;;;;;;0.80;0.80;;;16.60;99.90;;;;;;4906490;29;20055;-95
2021/08/18 10:55:14;;;;;;;0.65;0.63;;;16.70;99.90;;;;;;4906123;29;20032;-94
2021/08/18 10:57:47;;;;;;;2.40;0.88;;;16.70;99.90;;;;;;4909006;29;20028;-94
2021/08/18 11:00:19;;;;;;;1.40;0.80;;;16.80;99.90;;;;;;4904358;29;20047;-93
2021/08/18 11:02:52;;;;;;;5.05;1.67;;;16.80;99.90;;;;;;4904934;29;20059;-95
2021/08/18 11:05:23;;;;;;;1.48;0.90;;;16.80;99.90;;;;;;4903610;29;20024;-93
2021/08/18 11:08:04;;;;;;;1.20;0.80;;;16.80;99.90;;;;;;4903562;29;20028;-93
2021/08/18 11:10:32;;;;;;;1.25;0.80;;;16.90;99.90;;;;;;4903938;29;20398;-95
2021/08/18 11:12:59;;;;;;;2.50;0.80;;;17.00;99.90;;;;;;4903817;29;20024;-95
2021/08/18 11:15:26;;;;;;;0.88;0.70;;;17.10;99.90;;;;;;4903153;29;20064;-94
2021/08/18 11:17:54;;;;;;;2.80;1.58;;;17.30;99.90;;;;;;4903555;29;20063;-93
2021/08/18 11:20:28;;;;;;;6.43;1.15;;;17.50;99.90;;;;;;4903263;29;20024;-93
2021/08/18 11:22:59;;;;;;;0.70;0.70;;;17.60;99.90;;;;;;4903346;29;20044;-94
2021/08/18 11:25:26;;;;;;;1.42;0.90;;;17.70;99.90;;;;;;4903500;29;20066;-94
2021/08/18 11:27:54;;;;;;;3.40;1.70;;;17.80;99.90;;;;;;4903637;29;20625;-93
2021/08/18 11:30:28;;;;;;;3.83;1.58;;;17.80;99.90;;;;;;4903349;29;20063;-92
2021/08/18 11:32:55;;;;;;;2.53;1.42;;;17.70;99.90;;;;;;4904402;29;20028;-94
2021/08/18 11:35:34;;;;;;;1.27;1.15;;;17.60;99.90;;;;;;4903073;29;20035;-94
2021/08/18 11:38:04;;;;;;;2.58;1.25;;;17.60;99.90;;;;;;4903651;29;20028;-93
2021/08/18 11:40:31;;;;;;;2.63;1.30;;;17.60;99.90;;;;;;4902509;29;20552;-94
2021/08/18 11:42:57;;;;;;;1.58;1.20;;;17.60;99.90;;;;;;4903083;29;20079;-93
2021/08/18 11:45:24;;;;;;;2.75;1.60;;;17.60;99.90;;;;;;4903202;29;20040;-94
2021/08/18 11:48:08;;;;;;;5.32;2.22;;;17.60;99.90;;;;;;4902827;29;20028;-93
2021/08/18 11:50:35;;;;;;;3.10;1.77;;;17.50;99.90;;;;;;4903974;29;20770;-95
2021/08/18 11:53:04;;;;;;;3.63;1.55;;;17.40;99.90;;;;;;4902387;29;20031;-95
2021/08/18 11:55:31;;;;;;;2.75;1.60;;;17.40;99.90;;;;;;4903624;29;20050;-94
2021/08/18 11:58:01;;;;;;;3.42;1.88;;;17.30;99.90;;;;;;4902726;29;20570;-94
2021/08/18 12:00:31;;;;;;;2.30;1.67;;;17.20;99.90;;;;;;4902697;29;20036;-94
2021/08/18 12:02:58;;;;;;;3.63;1.60;;;17.10;99.90;;;;;;4887177;29;20119;-94
2021/08/18 12:05:34;;;;;;;2.63;1.70;;;17.00;99.90;;;;;;4902554;29;20107;-94
2021/08/18 12:08:07;;;;;;;1.23;1.02;;;17.00;99.90;;;;;;4901980;29;20024;-94
2021/08/18 12:10:44;;;;;;;1.63;0.98;;;16.90;99.90;;;;;;4918756;29;20028;-94
2021/08/18 12:13:15;;;;;;;1.35;1.15;;;16.90;99.90;;;;;;4902174;29;20028;-94
2021/08/18 12:15:46;;;;;;;1.30;1.10;;;17.00;99.90;;;;;;4902405;29;20024;-94
2021/08/18 12:18:34;;;;;;;0.85;0.85;;;17.00;99.90;;;;;;4902049;29;20127;-93
2021/08/18 12:21:19;;;;;;;1.20;1.10;;;17.00;99.90;;;;;;4902493;29;20028;-94
2021/08/18 12:23:49;;;;;;;1.60;1.05;;;17.10;99.90;;;;;;4902179;29;20036;-92
2021/08/18 12:26:37;;;;;;;1.23;1.10;;;17.00;99.90;;;;;;4901345;29;20051;-95
2021/08/18 12:29:06;;;;;;;1.35;1.20;;;16.90;99.90;;;;;;4903282;29;20028;-94
2021/08/18 12:31:53;;;;;;;2.47;0.88;;;16.80;99.90;;;;;;4902303;29;20028;-94
2021/08/18 12:34:28;;;;;;;0.98;0.85;;;16.70;99.90;;;;;;4901734;29;20056;-92
2021/08/18 12:37:21;;;;;;;2.05;0.70;;;16.70;99.90;;;;;;4902160;29;20047;-93
2021/08/18 12:39:52;;;;;;;3.92;1.00;;;16.60;99.90;;;;;;4897915;29;20105;-92
2021/08/18 12:42:22;;;;;;;1.55;0.80;;;16.60;99.90;;;;;;4905056;29;20040;-94
2021/08/18 12:45:17;;;;;;;2.30;0.73;;;16.60;99.90;;;;;;4904268;29;20028;-92
2021/08/18 12:47:52;;;;;;;3.33;0.68;;;16.70;99.90;;;;;;4916610;29;20039;-92
2021/08/18 12:50:36;;;;;;;0.57;0.45;;;16.70;99.90;;;;;;4901792;29;20040;-95
2021/08/18 12:53:03;;;;;;;1.30;0.77;;;16.70;99.90;;;;;;4902697;29;20076;-93
2021/08/18 12:55:29;;;;;;;2.00;0.85;;;16.70;99.90;;;;;;4902068;29;20028;-94
2021/08/18 12:57:55;;;;;;;0.88;0.80;;;16.60;99.90;;;;;;4902097;29;20043;-95
2021/08/18 13:00:26;;;;;;;2.90;1.13;;;16.60;99.90;;;;;;4901911;29;20482;-95
2021/08/18 13:02:52;;;;;;;2.55;1.02;;;16.60;99.90;;;;;;4902823;29;20029;-94